createdAt,value
2019-02-12T00:01:49.623Z,4.22
2019-02-12T00:04:17.015Z,4.23
2019-02-12T00:06:44.606Z,4.29
2019-02-12T00:09:12.025Z,4.27
2019-02-12T00:11:39.871Z,4.22
2019-02-12T00:14:07.386Z,4.19
2019-02-12T00:16:34.785Z,4.21
2019-02-12T00:19:02.543Z,4.26
2019-02-12T00:21:30.173Z,4.24
2019-02-12T00:23:57.590Z,4.21
2019-02-12T00:26:25.001Z,4.16
2019-02-12T00:28:52.378Z,4.06
2019-02-12T00:31:19.779Z,4.10
2019-02-12T00:33:47.189Z,4.07
2019-02-12T00:36:14.581Z,4.08
2019-02-12T00:38:41.984Z,3.99
2019-02-12T00:41:09.418Z,3.97
2019-02-12T00:43:36.798Z,3.96
2019-02-12T00:46:04.209Z,3.88
2019-02-12T00:48:31.599Z,3.80
2019-02-12T00:50:59.010Z,3.83
2019-02-12T00:53:26.424Z,3.92
2019-02-12T00:55:53.815Z,3.99
2019-02-12T00:58:21.219Z,3.96
2019-02-12T01:00:48.863Z,3.99
2019-02-12T01:03:16.270Z,4.01
2019-02-12T01:05:43.671Z,4.07
2019-02-12T01:08:11.797Z,4.11
2019-02-12T01:10:39.211Z,4.16
2019-02-12T01:13:06.784Z,4.17
2019-02-12T01:15:34.167Z,4.02
2019-02-12T01:18:01.570Z,4.01
2019-02-12T01:20:28.962Z,4.01
2019-02-12T01:22:56.441Z,4.02
2019-02-12T01:25:23.831Z,4.02
2019-02-12T01:27:51.324Z,3.95
2019-02-12T01:30:18.720Z,4.02
2019-02-12T01:32:46.129Z,3.99
2019-02-12T01:35:13.581Z,3.91
2019-02-12T01:37:40.958Z,3.89
2019-02-12T01:40:08.383Z,3.88
2019-02-12T01:42:35.783Z,3.92
2019-02-12T01:45:03.182Z,3.88
2019-02-12T01:47:30.773Z,3.84
2019-02-12T01:49:58.164Z,3.80
2019-02-12T01:52:25.562Z,3.74
2019-02-12T01:54:52.951Z,3.71
2019-02-12T01:57:20.370Z,3.66
2019-02-12T01:59:47.768Z,3.62
2019-02-12T02:02:15.344Z,3.64
2019-02-12T02:04:42.765Z,3.65
2019-02-12T02:07:10.152Z,3.60
2019-02-12T02:09:37.555Z,3.59
2019-02-12T02:12:04.943Z,3.59
2019-02-12T02:14:32.362Z,3.58
2019-02-12T02:16:59.763Z,3.56
2019-02-12T02:19:27.160Z,3.56
2019-02-12T02:21:54.567Z,3.51
2019-02-12T02:24:22.023Z,3.49
2019-02-12T02:26:49.414Z,3.45
2019-02-12T02:29:16.851Z,3.51
2019-02-12T02:31:44.221Z,3.59
2019-02-12T02:34:11.652Z,3.69
2019-02-12T02:36:39.053Z,3.74
2019-02-12T02:39:06.587Z,3.77
2019-02-12T02:41:33.975Z,3.82
2019-02-12T02:44:01.378Z,3.90
2019-02-12T02:46:28.789Z,3.91
2019-02-12T02:48:56.190Z,3.95
2019-02-12T02:51:23.594Z,3.99
2019-02-12T02:53:50.975Z,4.03
2019-02-12T02:56:18.385Z,4.01
2019-02-12T02:58:45.777Z,4.00
2019-02-12T03:01:13.266Z,4.08
2019-02-12T03:03:40.652Z,4.18
2019-02-12T03:06:08.198Z,4.21
2019-02-12T03:08:35.695Z,4.22
2019-02-12T03:11:03.504Z,4.26
2019-02-12T03:13:30.898Z,4.04
2019-02-12T03:15:58.430Z,3.57
2019-02-12T03:18:25.814Z,3.40
2019-02-12T03:20:53.226Z,3.46
2019-02-12T03:23:20.606Z,3.60
2019-02-12T03:25:47.999Z,3.66
2019-02-12T03:28:15.409Z,3.69
2019-02-12T03:30:42.807Z,3.75
2019-02-12T03:33:10.229Z,3.76
2019-02-12T03:35:37.629Z,3.82
2019-02-12T03:38:05.042Z,3.90
2019-02-12T03:40:32.435Z,3.99
2019-02-12T03:42:59.833Z,4.06
2019-02-12T03:45:27.223Z,4.12
2019-02-12T03:47:54.627Z,4.15
2019-02-12T03:50:22.572Z,4.14
2019-02-12T03:52:49.974Z,4.20
2019-02-12T03:55:17.355Z,4.26
2019-02-12T03:57:44.748Z,4.23
2019-02-12T04:00:13.101Z,4.27
2019-02-12T04:02:40.498Z,4.25
2019-02-12T04:05:07.891Z,4.14
2019-02-12T04:07:35.331Z,4.09
2019-02-12T04:10:02.718Z,4.01
2019-02-12T04:12:30.140Z,3.92
2019-02-12T04:14:58.205Z,3.83
2019-02-12T04:17:25.592Z,3.75
2019-02-12T04:19:53.118Z,3.67
2019-02-12T04:22:22.445Z,3.58
2019-02-12T04:24:48.235Z,3.60
2019-02-12T04:27:15.627Z,3.66
2019-02-12T04:29:43.032Z,3.61
2019-02-12T04:32:10.433Z,3.66
2019-02-12T04:34:37.871Z,3.70
2019-02-12T04:37:05.545Z,3.79
2019-02-12T04:39:33.038Z,3.83
2019-02-12T04:42:00.488Z,3.81
2019-02-12T04:44:27.908Z,3.76
2019-02-12T04:46:55.291Z,3.76
2019-02-12T04:49:22.688Z,3.76
2019-02-12T04:51:50.275Z,3.75
2019-02-12T04:54:17.871Z,3.83
2019-02-12T04:56:46.514Z,3.84
2019-02-12T04:59:13.923Z,3.99
2019-02-12T05:01:41.335Z,4.14
2019-02-12T05:04:08.756Z,4.22
2019-02-12T05:06:36.146Z,4.24
2019-02-12T05:09:11.876Z,4.31
2019-02-12T05:11:39.348Z,4.36
2019-02-12T05:14:06.753Z,4.40
2019-02-12T05:16:34.152Z,4.42
2019-02-12T05:19:01.583Z,4.47
2019-02-12T05:21:28.999Z,4.52
2019-02-12T05:23:56.450Z,4.57
2019-02-12T05:26:24.666Z,4.58
2019-02-12T05:28:52.066Z,4.62
2019-02-12T05:31:19.638Z,4.61
2019-02-12T05:33:47.018Z,4.52
2019-02-12T05:36:14.421Z,4.47
2019-02-12T05:38:41.802Z,4.43
2019-02-12T05:41:11.219Z,4.45
2019-02-12T05:43:36.740Z,4.45
2019-02-12T05:46:04.273Z,4.47
2019-02-12T05:48:31.825Z,4.49
2019-02-12T05:50:59.231Z,4.46
2019-02-12T05:53:26.762Z,4.33
2019-02-12T05:55:54.135Z,4.21
2019-02-12T05:58:21.539Z,4.18
2019-02-12T06:00:48.937Z,4.10
2019-02-12T06:03:16.335Z,4.08
2019-02-12T06:05:43.763Z,4.07
2019-02-12T06:08:11.286Z,4.07
2019-02-12T06:10:39.505Z,3.99
2019-02-12T06:13:06.915Z,3.98
2019-02-12T06:15:34.616Z,3.99
2019-02-12T06:18:02.129Z,4.03
2019-02-12T06:20:29.555Z,4.51
2019-02-12T06:23:03.311Z,4.24
2019-02-12T06:25:24.411Z,3.93
2019-02-12T06:27:51.860Z,3.76
2019-02-12T06:30:21.403Z,3.83
2019-02-12T06:32:48.972Z,3.79
2019-02-12T06:35:16.415Z,3.77
2019-02-12T06:37:43.898Z,3.76
2019-02-12T06:40:11.316Z,3.77
2019-02-12T06:42:38.737Z,3.85
2019-02-12T06:45:11.111Z,3.84
2019-02-12T06:47:38.506Z,3.73
2019-02-12T06:50:08.648Z,3.60
2019-02-12T06:52:36.040Z,3.57
2019-02-12T06:55:04.233Z,3.55
2019-02-12T06:57:31.621Z,3.65
2019-02-12T06:59:59.010Z,3.73
2019-02-12T07:02:38.601Z,3.79
2019-02-12T07:05:05.991Z,3.75
2019-02-12T07:07:35.119Z,3.83
2019-02-12T07:10:02.594Z,3.92
2019-02-12T07:12:36.608Z,4.00
2019-02-12T07:15:14.404Z,4.05
2019-02-12T07:17:46.220Z,4.04
2019-02-12T07:23:26.144Z,4.68
2019-02-12T07:26:10.238Z,4.66
2019-02-12T07:28:52.487Z,4.66
2019-02-12T07:34:56.872Z,5.03
2019-02-12T07:37:26.894Z,4.86
2019-02-12T07:39:56.687Z,4.85
2019-02-12T07:42:27.493Z,4.91
2019-02-12T07:48:13.540Z,5.14
2019-02-12T07:53:54.706Z,5.35
2019-02-12T07:59:21.775Z,5.70
2019-02-12T08:05:11.567Z,8.38
2019-02-12T08:07:54.798Z,9.48
2019-02-12T08:10:26.735Z,10.83
2019-02-12T08:12:54.655Z,11.61
2019-02-12T08:15:27.336Z,12.14
2019-02-12T08:17:57.457Z,12.11
2019-02-12T08:20:39.328Z,12.50
2019-02-12T08:26:31.718Z,14.22
2019-02-12T08:32:22.718Z,15.96
2019-02-12T08:35:04.604Z,15.50
2019-02-12T08:40:28.906Z,16.52
2019-02-12T08:42:59.161Z,14.07
2019-02-12T08:45:34.105Z,13.13
2019-02-12T08:48:10.186Z,12.69
2019-02-12T08:50:47.513Z,13.51
2019-02-12T08:53:23.407Z,13.80
2019-02-12T08:56:07.540Z,12.57
2019-02-12T08:58:40.520Z,12.88
2019-02-12T09:01:12.732Z,11.62
2019-02-12T09:03:57.959Z,11.61
2019-02-12T09:06:34.125Z,11.36
2019-02-12T09:09:22.262Z,11.79
2019-02-12T09:12:12.339Z,10.68
2019-02-12T09:14:49.365Z,10.03
2019-02-12T09:20:30.745Z,11.34
2019-02-12T09:23:01.878Z,9.68
2019-02-12T09:25:29.326Z,10.27
2019-02-12T09:28:02.216Z,12.74
2019-02-12T09:33:38.553Z,17.23
2019-02-12T09:39:23.364Z,18.55
2019-02-12T09:42:06.001Z,17.37
2019-02-12T09:44:33.816Z,17.05
2019-02-12T09:47:07.438Z,17.80
2019-02-12T09:49:37.217Z,17.92
2019-02-12T09:52:06.917Z,18.24
2019-02-12T09:54:37.681Z,18.54
2019-02-12T09:57:10.862Z,18.38
2019-02-12T09:59:37.803Z,17.85
2019-02-12T10:02:10.557Z,17.95
2019-02-12T10:04:52.479Z,17.90
2019-02-12T10:07:22.199Z,17.41
2019-02-12T10:09:49.219Z,17.01
2019-02-12T10:12:16.370Z,16.42
2019-02-12T10:15:02.157Z,15.63
2019-02-12T10:17:44.227Z,15.45
2019-02-12T10:20:12.806Z,15.84
2019-02-12T10:22:45.541Z,16.73
2019-02-12T10:25:13.572Z,16.63
2019-02-12T10:27:44.406Z,16.59
2019-02-12T10:30:19.144Z,16.42
2019-02-12T10:32:46.242Z,16.04
2019-02-12T10:35:13.309Z,14.83
2019-02-12T10:37:40.286Z,14.71
2019-02-12T10:40:07.232Z,15.98
2019-02-12T10:42:34.174Z,16.16
2019-02-12T10:45:01.199Z,16.15
2019-02-12T10:47:28.150Z,16.24
2019-02-12T10:49:55.117Z,15.95
2019-02-12T10:52:22.206Z,16.45
2019-02-12T10:54:49.179Z,16.76
2019-02-12T10:57:16.149Z,16.20
2019-02-12T10:59:43.271Z,16.28
2019-02-12T11:02:10.365Z,16.06
2019-02-12T11:04:37.324Z,16.12
2019-02-12T11:07:04.265Z,16.31
2019-02-12T11:09:31.202Z,16.68
2019-02-12T11:11:58.147Z,16.57
2019-02-12T11:14:25.378Z,16.64
2019-02-12T11:16:52.319Z,17.14
2019-02-12T11:19:19.259Z,17.32
2019-02-12T11:21:46.471Z,17.70
2019-02-12T11:24:13.413Z,17.76
2019-02-12T11:26:40.375Z,17.93
2019-02-12T11:29:07.875Z,17.71
2019-02-12T11:31:34.923Z,17.46
2019-02-12T11:34:01.873Z,17.42
2019-02-12T11:36:28.903Z,18.14
2019-02-12T11:38:55.968Z,18.04
2019-02-12T11:41:22.907Z,16.96
2019-02-12T11:43:49.990Z,16.66
2019-02-12T11:46:17.017Z,17.69
2019-02-12T11:48:44.100Z,18.57
2019-02-12T11:51:11.046Z,19.39
2019-02-12T11:53:38.205Z,19.53
2019-02-12T11:56:05.235Z,20.18
2019-02-12T11:58:32.367Z,20.45
2019-02-12T12:00:59.718Z,20.73
2019-02-12T12:03:26.757Z,20.34
2019-02-12T12:05:53.926Z,20.50
2019-02-12T12:08:21.049Z,20.46
2019-02-12T12:10:48.099Z,20.09
2019-02-12T12:13:15.054Z,20.59
2019-02-12T12:15:42.056Z,21.08
2019-02-12T12:18:09.046Z,21.20
2019-02-12T12:20:36.283Z,21.77
2019-02-12T12:23:03.275Z,21.92
2019-02-12T12:25:30.249Z,22.28
2019-02-12T12:27:57.288Z,20.93
2019-02-12T12:30:24.265Z,20.24
2019-02-12T12:32:51.336Z,21.00
2019-02-12T12:35:18.370Z,21.97
2019-02-12T12:37:45.368Z,22.34
2019-02-12T12:40:12.320Z,22.23
2019-02-12T12:42:39.330Z,22.85
2019-02-12T12:45:07.995Z,23.41
2019-02-12T12:47:34.964Z,24.57
2019-02-12T12:50:01.914Z,23.77
2019-02-12T12:52:29.661Z,22.05
2019-02-12T12:54:59.861Z,20.71
2019-02-12T12:57:25.419Z,19.62
2019-02-12T12:59:53.182Z,19.17
2019-02-12T13:02:20.699Z,19.70
2019-02-12T13:04:52.551Z,20.79
2019-02-12T13:07:21.182Z,20.23
2019-02-12T13:09:48.573Z,20.02
2019-02-12T13:12:16.064Z,18.98
2019-02-12T13:14:43.458Z,18.64
2019-02-12T13:17:11.566Z,18.89
2019-02-12T13:19:38.386Z,19.56
2019-02-12T13:22:05.928Z,19.49
2019-02-12T13:24:33.358Z,19.27
2019-02-12T13:27:01.077Z,19.94
2019-02-12T13:29:28.500Z,20.27
2019-02-12T13:31:55.914Z,22.21
2019-02-12T13:34:23.499Z,24.32
2019-02-12T13:36:50.903Z,24.80
2019-02-12T13:39:18.322Z,25.47
2019-02-12T13:41:45.770Z,25.96
2019-02-12T13:44:12.706Z,25.97
2019-02-12T13:46:40.223Z,26.14
2019-02-12T13:49:08.415Z,25.13
2019-02-12T13:51:35.883Z,24.68
2019-02-12T13:54:04.814Z,25.32
2019-02-12T13:56:31.005Z,26.53
2019-02-12T13:58:58.444Z,26.59
2019-02-12T14:01:25.988Z,26.20
2019-02-12T14:03:53.439Z,26.19
2019-02-12T14:06:20.963Z,28.01
2019-02-12T14:08:47.898Z,29.11
2019-02-12T14:11:15.309Z,28.59
2019-02-12T14:13:42.764Z,28.67
2019-02-12T14:16:09.732Z,30.05
2019-02-12T14:18:36.675Z,31.15
2019-02-12T14:21:03.656Z,31.24
2019-02-12T14:23:31.101Z,31.70
2019-02-12T14:25:58.559Z,32.43
2019-02-12T14:28:26.008Z,32.26
2019-02-12T14:30:54.182Z,31.59
2019-02-12T14:33:21.283Z,30.89
2019-02-12T14:35:48.235Z,30.88
2019-02-12T14:38:15.213Z,30.12
2019-02-12T14:40:42.173Z,29.87
2019-02-12T14:43:14.076Z,30.01
2019-02-12T14:45:36.578Z,29.11
2019-02-12T14:48:04.207Z,24.84
2019-02-12T14:50:31.612Z,23.28
2019-02-12T14:52:59.634Z,23.12
2019-02-12T14:55:33.640Z,26.07
2019-02-12T14:57:54.604Z,26.66
2019-02-12T15:00:22.033Z,26.57
2019-02-12T15:02:49.472Z,26.19
2019-02-12T15:05:16.874Z,25.52
2019-02-12T15:07:44.291Z,26.31
2019-02-12T15:10:11.695Z,26.65
2019-02-12T15:12:39.654Z,27.70
2019-02-12T15:15:09.146Z,27.04
2019-02-12T15:17:37.381Z,26.64
2019-02-12T15:20:08.455Z,26.68
2019-02-12T15:22:35.929Z,26.65
2019-02-12T15:25:03.355Z,26.93
2019-02-12T15:27:30.778Z,26.94
2019-02-12T15:29:58.190Z,26.77
2019-02-12T15:32:25.600Z,26.12
2019-02-12T15:34:53.005Z,25.92
2019-02-12T15:37:20.467Z,27.78
2019-02-12T15:39:47.872Z,29.78
2019-02-12T15:42:15.282Z,29.99
2019-02-12T15:44:42.844Z,29.74
2019-02-12T15:47:10.256Z,28.98
2019-02-12T15:49:37.796Z,29.10
2019-02-12T15:52:05.179Z,28.12
2019-02-12T15:54:32.581Z,26.96
2019-02-12T15:57:00.007Z,25.67
2019-02-12T15:59:27.395Z,25.27
2019-02-12T16:01:54.797Z,24.17
2019-02-12T16:04:25.767Z,23.24
2019-02-12T16:06:49.891Z,21.82
2019-02-12T16:09:17.814Z,18.74
2019-02-12T16:11:44.933Z,15.41
2019-02-12T16:14:12.370Z,13.56
2019-02-12T16:16:39.975Z,12.26
2019-02-12T16:19:07.806Z,11.22
2019-02-12T16:21:34.993Z,10.63
2019-02-12T16:24:02.497Z,10.38
2019-02-12T16:26:29.934Z,10.16
2019-02-12T16:28:57.571Z,9.89
2019-02-12T16:31:24.962Z,9.55
2019-02-12T16:33:52.483Z,9.22
2019-02-12T16:36:20.587Z,9.08
2019-02-12T16:38:48.957Z,8.88
2019-02-12T16:41:15.855Z,8.66
2019-02-12T16:43:43.305Z,8.50
2019-02-12T16:46:13.662Z,8.39
2019-02-12T16:48:41.888Z,8.25
2019-02-12T16:51:09.471Z,8.19
2019-02-12T16:53:37.564Z,8.08
2019-02-12T16:56:08.368Z,7.91
2019-02-12T16:58:32.391Z,7.81
2019-02-12T17:00:59.844Z,7.73
2019-02-12T17:03:27.454Z,7.68
2019-02-12T17:05:54.923Z,7.70
2019-02-12T17:08:22.356Z,7.74
2019-02-12T17:10:49.744Z,7.76
2019-02-12T17:13:17.146Z,7.66
2019-02-12T17:15:44.718Z,7.56
2019-02-12T17:18:12.232Z,7.60
2019-02-12T17:20:39.650Z,7.57
2019-02-12T17:23:07.051Z,7.60
2019-02-12T17:25:34.468Z,7.53
2019-02-12T17:28:01.983Z,7.44
2019-02-12T17:30:29.416Z,7.45
2019-02-12T17:32:56.891Z,7.34
2019-02-12T17:35:24.280Z,7.28
2019-02-12T17:37:51.802Z,7.26
2019-02-12T17:40:19.228Z,7.28
2019-02-12T17:42:46.644Z,7.26
2019-02-12T17:45:14.043Z,7.24
2019-02-12T17:47:41.453Z,7.27
2019-02-12T17:50:09.750Z,7.25
2019-02-12T17:52:37.187Z,7.22
2019-02-12T17:55:04.595Z,7.17
2019-02-12T17:57:33.453Z,7.21
2019-02-12T17:59:59.450Z,7.17
2019-02-12T18:02:26.885Z,7.12
2019-02-12T18:04:54.345Z,7.10
2019-02-12T18:07:21.763Z,7.17
2019-02-12T18:09:49.214Z,7.28
2019-02-12T18:12:16.608Z,7.27
2019-02-12T18:14:44.086Z,7.34
2019-02-12T18:17:11.648Z,7.39
2019-02-12T18:19:39.966Z,7.28
2019-02-12T18:22:07.375Z,7.19
2019-02-12T18:24:34.795Z,7.12
2019-02-12T18:27:02.349Z,7.00
2019-02-12T18:29:30.007Z,6.94
2019-02-12T18:31:57.435Z,6.92
2019-02-12T18:34:24.880Z,6.89
2019-02-12T18:36:52.279Z,6.93
2019-02-12T18:39:19.683Z,6.98
2019-02-12T18:44:20.960Z,7.04
2019-02-12T18:46:49.115Z,7.03
2019-02-12T18:49:16.520Z,6.99
2019-02-12T18:51:43.920Z,7.00
2019-02-12T18:54:12.287Z,6.92
2019-02-12T18:56:41.626Z,6.87
2019-02-12T18:59:07.091Z,6.86
2019-02-12T19:01:34.544Z,6.93
2019-02-12T19:04:02.058Z,6.97
2019-02-12T19:06:29.500Z,7.05
2019-02-12T19:08:57.027Z,6.99
2019-02-12T19:11:24.457Z,6.82
2019-02-12T19:13:51.911Z,6.64
2019-02-12T19:16:19.353Z,6.62
2019-02-12T19:18:46.980Z,6.66
2019-02-12T19:21:14.641Z,6.61
2019-02-12T19:23:42.103Z,6.52
2019-02-12T19:26:09.588Z,6.49
2019-02-12T19:28:36.989Z,6.52
2019-02-12T19:31:04.470Z,6.49
2019-02-12T19:33:31.930Z,6.54
2019-02-12T19:35:59.313Z,6.58
2019-02-12T19:38:26.714Z,6.58
2019-02-12T19:40:54.153Z,6.44
2019-02-12T19:43:21.555Z,6.38
2019-02-12T19:45:48.968Z,6.40
2019-02-12T19:48:16.386Z,6.40
2019-02-12T19:50:43.893Z,6.48
2019-02-12T19:53:11.620Z,6.49
2019-02-12T19:55:39.015Z,6.33
2019-02-12T19:58:06.495Z,6.26
2019-02-12T20:00:33.979Z,6.18
2019-02-12T20:03:01.415Z,6.17
2019-02-12T20:05:28.875Z,6.10
2019-02-12T20:07:56.287Z,6.01
2019-02-12T20:10:23.708Z,5.91
2019-02-12T20:12:51.088Z,5.93
2019-02-12T20:15:19.351Z,5.91
2019-02-12T20:17:46.783Z,5.89
2019-02-12T20:20:14.305Z,5.87
2019-02-12T20:22:41.691Z,5.85
2019-02-12T20:25:09.147Z,5.86
2019-02-12T20:27:36.564Z,5.88
2019-02-12T20:30:03.941Z,6.00
2019-02-12T20:32:31.408Z,6.01
2019-02-12T20:34:58.830Z,5.95
2019-02-12T20:37:26.434Z,5.90
2019-02-12T20:39:53.919Z,5.91
2019-02-12T20:42:21.401Z,5.94
2019-02-12T20:44:48.797Z,5.94
2019-02-12T20:47:16.542Z,5.86
2019-02-12T20:49:43.947Z,5.83
2019-02-12T20:52:11.874Z,5.75
2019-02-12T20:54:39.384Z,5.70
2019-02-12T20:57:14.565Z,5.67
2019-02-12T20:59:35.302Z,5.71
2019-02-12T21:02:02.714Z,5.72
2019-02-12T21:04:30.150Z,5.72
2019-02-12T21:06:57.577Z,5.69
2019-02-12T21:09:25.150Z,5.69
2019-02-12T21:11:52.580Z,5.68
2019-02-12T21:14:20.218Z,5.67
2019-02-12T21:16:47.609Z,5.61
2019-02-12T21:19:15.932Z,5.60
2019-02-12T21:21:44.019Z,5.60
2019-02-12T21:24:11.428Z,5.56
2019-02-12T21:26:38.821Z,5.58
2019-02-12T21:29:06.320Z,5.54
2019-02-12T21:31:33.734Z,5.52
2019-02-12T21:34:01.123Z,5.55
2019-02-12T21:36:28.582Z,5.52
2019-02-12T21:38:56.001Z,5.51
2019-02-12T21:41:23.420Z,5.55
2019-02-12T21:43:50.877Z,5.58
2019-02-12T21:46:18.279Z,5.59
2019-02-12T21:48:45.780Z,5.56
2019-02-12T21:51:13.205Z,5.52
2019-02-12T21:53:40.612Z,5.50
2019-02-12T21:56:08.133Z,5.51
2019-02-12T21:58:35.663Z,5.47
2019-02-12T22:01:03.919Z,5.37
2019-02-12T22:03:31.651Z,5.29
2019-02-12T22:05:59.070Z,5.25
2019-02-12T22:08:26.551Z,5.22
2019-02-12T22:10:54.008Z,5.18
2019-02-12T22:13:21.412Z,5.12
2019-02-12T22:15:48.813Z,5.06
2019-02-12T22:18:17.097Z,5.02
2019-02-12T22:20:44.844Z,5.07
2019-02-12T22:23:12.324Z,5.07
2019-02-12T22:25:39.774Z,5.07
2019-02-12T22:28:07.213Z,5.01
2019-02-12T22:30:34.664Z,4.98
2019-02-12T22:33:02.077Z,5.00
2019-02-12T22:35:29.522Z,4.96
2019-02-12T22:37:57.062Z,5.00
2019-02-12T22:40:24.731Z,4.99
2019-02-12T22:42:52.161Z,4.95
2019-02-12T22:45:22.435Z,4.91
2019-02-12T22:47:49.852Z,4.85
2019-02-12T22:50:17.329Z,4.84
2019-02-12T22:52:44.781Z,4.84
2019-02-12T22:55:12.358Z,4.86
2019-02-12T22:57:39.800Z,4.89
2019-02-12T23:00:25.906Z,4.93
2019-02-12T23:02:53.601Z,4.95
2019-02-12T23:05:22.212Z,4.99
2019-02-12T23:07:48.532Z,4.96
2019-02-12T23:10:16.122Z,4.96
2019-02-12T23:12:43.705Z,4.97
2019-02-12T23:15:11.117Z,5.02
2019-02-12T23:17:38.757Z,4.86
2019-02-12T23:20:06.144Z,4.88
2019-02-12T23:22:33.556Z,4.93
2019-02-12T23:25:00.987Z,4.96
2019-02-12T23:27:28.420Z,4.99
2019-02-12T23:29:55.842Z,4.90
2019-02-12T23:32:23.266Z,4.84
2019-02-12T23:34:56.987Z,4.82
2019-02-12T23:37:18.158Z,4.84
2019-02-12T23:39:45.626Z,4.83
2019-02-12T23:42:13.010Z,4.84
2019-02-12T23:44:40.446Z,4.87
2019-02-12T23:47:07.944Z,4.94
2019-02-12T23:49:35.451Z,4.95
2019-02-12T23:52:02.870Z,4.99
2019-02-12T23:54:30.274Z,5.01
2019-02-12T23:56:57.657Z,5.00
2019-02-12T23:59:25.101Z,5.01
